Time;durP1;ratioP1;P1;durP2;ratioP2;P2;SDS_P1;SDS_P2;PMS_P1;PMS_P2;Temp;Humidity;BMP_temperature;BMP_pressure;BME280_temperature;BME280_humidity;BME280_pressure;Samples;Min_cycle;Max_cycle;Signal;HPM_P1;HPM_P2
2020/12/15 00:02:08;;;;;;;10.10;6.85;;;10.00;99.90;;;;;;5067892;28;20474;-64
2020/12/15 00:04:34;;;;;;;15.65;7.57;;;10.10;99.90;;;;;;5063166;28;20050;-65
2020/12/15 00:06:59;;;;;;;11.80;7.50;;;10.00;99.90;;;;;;5069501;28;20509;-65
2020/12/15 00:09:25;;;;;;;12.40;7.10;;;10.00;99.90;;;;;;5070285;28;20111;-64
2020/12/15 00:11:50;;;;;;;9.52;7.10;;;10.00;99.90;;;;;;5069448;28;20024;-64
2020/12/15 00:14:16;;;;;;;11.75;7.15;;;10.00;99.90;;;;;;5067942;28;20024;-65
2020/12/15 00:16:41;;;;;;;11.52;6.70;;;10.00;99.90;;;;;;5066684;28;20136;-64
2020/12/15 00:19:07;;;;;;;11.18;7.85;;;10.10;99.90;;;;;;5056247;28;20421;-65
2020/12/15 00:21:32;;;;;;;12.45;8.18;;;10.10;99.90;;;;;;5076635;28;20086;-64
2020/12/15 00:23:58;;;;;;;14.32;7.10;;;10.10;99.90;;;;;;5074770;28;20112;-64
2020/12/15 00:26:24;;;;;;;13.00;8.32;;;10.00;99.90;;;;;;5075132;28;20025;-66
2020/12/15 00:28:50;;;;;;;11.55;8.13;;;10.00;99.90;;;;;;5070838;28;20020;-65
2020/12/15 00:31:17;;;;;;;10.77;7.72;;;9.90;99.90;;;;;;5068919;28;20028;-65
2020/12/15 00:33:42;;;;;;;17.77;8.45;;;9.90;99.90;;;;;;5073987;28;20343;-66
2020/12/15 00:36:08;;;;;;;12.35;8.07;;;9.90;99.90;;;;;;5054909;28;20028;-64
2020/12/15 00:38:34;;;;;;;13.63;8.40;;;9.90;99.90;;;;;;5071301;28;20032;-65
2020/12/15 00:41:00;;;;;;;11.35;8.02;;;9.80;99.90;;;;;;5073328;28;20029;-64
2020/12/15 00:43:25;;;;;;;12.85;7.75;;;9.80;99.90;;;;;;5068319;28;20031;-64
2020/12/15 00:45:51;;;;;;;11.38;7.25;;;9.80;99.90;;;;;;5074017;28;20089;-65
2020/12/15 00:48:16;;;;;;;12.93;7.20;;;9.80;99.90;;;;;;5073699;28;20087;-64
2020/12/15 00:50:42;;;;;;;13.73;7.43;;;9.80;99.90;;;;;;5074338;28;20033;-66
2020/12/15 00:53:08;;;;;;;13.50;6.95;;;9.80;99.90;;;;;;5074478;28;20025;-64
2020/12/15 00:55:33;;;;;;;11.98;7.40;;;9.80;99.90;;;;;;5073916;28;20020;-64
2020/12/15 00:57:59;;;;;;;13.85;7.93;;;9.80;99.90;;;;;;5073797;28;20036;-65
2020/12/15 01:00:24;;;;;;;13.95;7.78;;;9.80;99.90;;;;;;5072862;28;20039;-65
2020/12/15 01:02:50;;;;;;;8.75;6.95;;;9.80;99.90;;;;;;5073161;28;20040;-65
2020/12/15 01:05:16;;;;;;;12.57;7.53;;;9.80;99.90;;;;;;5073173;28;20529;-65
2020/12/15 01:07:41;;;;;;;9.45;7.30;;;9.80;99.90;;;;;;5071336;28;20036;-64
2020/12/15 01:10:07;;;;;;;13.88;6.90;;;9.70;99.90;;;;;;5073221;28;20213;-65
2020/12/15 01:12:33;;;;;;;10.73;6.60;;;9.70;99.90;;;;;;5071097;28;20027;-65
2020/12/15 01:14:59;;;;;;;11.77;7.45;;;9.80;99.90;;;;;;5068684;28;20046;-64
2020/12/15 01:17:24;;;;;;;11.98;7.18;;;9.70;99.90;;;;;;5072589;28;20044;-65
2020/12/15 01:19:50;;;;;;;9.20;7.15;;;9.70;99.90;;;;;;5061928;28;20108;-64
2020/12/15 01:22:15;;;;;;;11.50;7.70;;;9.70;99.90;;;;;;5056066;28;20368;-64
2020/12/15 01:24:41;;;;;;;19.17;7.50;;;9.70;99.90;;;;;;5069589;28;20028;-64
2020/12/15 01:27:07;;;;;;;13.10;7.28;;;9.60;99.90;;;;;;5061690;28;20106;-64
2020/12/15 01:29:32;;;;;;;11.85;7.22;;;9.70;99.90;;;;;;5072949;28;20036;-65
2020/12/15 01:32:04;;;;;;;11.55;6.97;;;9.70;99.90;;;;;;5087497;28;20066;-63
2020/12/15 01:34:30;;;;;;;10.45;7.13;;;9.70;99.90;;;;;;5068853;28;20020;-64
2020/12/15 01:36:58;;;;;;;10.82;6.75;;;9.70;99.90;;;;;;5093586;22;20044;-77
2020/12/15 01:39:24;;;;;;;17.55;6.30;;;9.80;99.90;;;;;;5083172;28;20164;-76
2020/12/15 01:41:50;;;;;;;11.18;7.45;;;9.80;99.90;;;;;;5086275;28;20136;-76
2020/12/15 01:44:15;;;;;;;12.30;7.88;;;9.80;99.90;;;;;;5091068;28;20028;-76
2020/12/15 01:46:41;;;;;;;10.77;7.05;;;9.80;99.90;;;;;;5096209;28;20570;-75
2020/12/15 01:49:08;;;;;;;15.68;8.00;;;9.80;99.90;;;;;;5092292;28;20547;-76
2020/12/15 01:51:34;;;;;;;12.13;6.75;;;9.80;99.90;;;;;;5094610;28;20078;-78
2020/12/15 01:54:02;;;;;;;11.00;6.78;;;9.80;99.90;;;;;;5085273;28;20039;-77
2020/12/15 01:56:29;;;;;;;11.57;6.75;;;9.80;99.90;;;;;;5093315;28;20386;-79
2020/12/15 01:58:56;;;;;;;10.65;6.50;;;9.80;99.90;;;;;;5092991;28;20556;-77
2020/12/15 02:01:23;;;;;;;11.00;6.40;;;9.80;99.90;;;;;;5070481;28;20093;-78
2020/12/15 02:03:50;;;;;;;11.65;6.57;;;9.80;99.90;;;;;;5091215;28;20024;-77
2020/12/15 02:06:18;;;;;;;10.77;6.43;;;9.80;99.90;;;;;;5093749;28;20023;-75
2020/12/15 02:08:44;;;;;;;8.90;6.22;;;9.80;99.90;;;;;;5093385;28;20031;-79
2020/12/15 02:11:10;;;;;;;10.82;7.45;;;9.80;99.90;;;;;;5094761;28;20110;-76
2020/12/15 02:13:41;;;;;;;8.82;5.85;;;9.80;99.90;;;;;;5094953;28;20032;-79
2020/12/15 02:16:10;;;;;;;11.18;5.72;;;9.80;99.90;;;;;;5093819;28;20119;-77
2020/12/15 02:18:37;;;;;;;17.73;6.50;;;9.80;99.90;;;;;;5086268;28;20028;-78
2020/12/15 02:21:04;;;;;;;10.07;6.00;;;9.80;99.90;;;;;;5075154;28;20028;-76
2020/12/15 02:23:30;;;;;;;10.40;7.07;;;9.90;99.90;;;;;;5093715;28;20016;-75
2020/12/15 02:25:56;;;;;;;8.80;6.13;;;9.90;99.90;;;;;;5081536;28;20028;-79
2020/12/15 02:28:21;;;;;;;12.05;6.38;;;9.90;99.90;;;;;;5062319;28;20174;-77
2020/12/15 02:30:47;;;;;;;10.93;6.20;;;9.90;99.90;;;;;;5094009;28;20710;-75
2020/12/15 02:33:12;;;;;;;8.55;6.13;;;9.90;99.90;;;;;;5086658;28;20039;-75
2020/12/15 02:35:38;;;;;;;10.10;5.78;;;9.90;99.90;;;;;;5091313;28;20111;-76
2020/12/15 02:38:08;;;;;;;11.10;5.60;;;9.90;99.90;;;;;;5084869;28;20074;-74
2020/12/15 02:40:34;;;;;;;11.75;6.10;;;9.90;99.90;;;;;;5088154;28;20031;-77
2020/12/15 02:42:59;;;;;;;9.10;6.10;;;9.90;99.90;;;;;;5075757;28;20023;-78
2020/12/15 02:45:25;;;;;;;11.02;6.25;;;9.90;99.90;;;;;;5069074;28;20055;-76
2020/12/15 02:47:51;;;;;;;10.18;7.15;;;10.00;99.90;;;;;;5095506;28;20040;-75
2020/12/15 02:50:21;;;;;;;8.68;6.30;;;10.00;99.90;;;;;;5074912;28;20027;-75
2020/12/15 02:52:47;;;;;;;16.02;6.95;;;10.00;99.90;;;;;;5053424;28;20259;-75
2020/12/15 02:55:13;;;;;;;10.57;6.75;;;10.00;99.90;;;;;;5088408;28;20028;-78
2020/12/15 02:57:38;;;;;;;10.30;6.88;;;10.00;99.90;;;;;;5077232;28;20016;-75
2020/12/15 03:00:09;;;;;;;10.93;6.93;;;10.00;99.90;;;;;;5058356;28;20029;-78
2020/12/15 03:02:34;;;;;;;10.23;6.95;;;10.00;99.90;;;;;;5057789;28;20024;-76
2020/12/15 03:05:00;;;;;;;10.77;7.10;;;10.10;99.90;;;;;;5074135;28;20506;-76
2020/12/15 03:07:26;;;;;;;10.70;7.28;;;10.10;99.90;;;;;;5074027;28;20020;-77
2020/12/15 03:09:51;;;;;;;10.75;6.13;;;10.10;99.90;;;;;;5103391;28;20073;-77
2020/12/15 03:12:19;;;;;;;14.45;7.95;;;10.00;99.90;;;;;;5092164;28;20024;-77
2020/12/15 03:14:47;;;;;;;10.75;6.97;;;10.10;99.90;;;;;;5060586;28;20027;-77
2020/12/15 03:17:13;;;;;;;13.30;7.75;;;10.10;99.90;;;;;;5072963;28;20024;-75
2020/12/15 03:19:38;;;;;;;12.02;7.50;;;10.10;99.90;;;;;;5082093;28;20019;-78
2020/12/15 03:22:04;;;;;;;12.60;7.43;;;10.10;99.90;;;;;;5111940;28;20099;-75
2020/12/15 03:24:29;;;;;;;12.35;7.78;;;10.00;99.90;;;;;;5094711;28;20024;-77
2020/12/15 03:26:55;;;;;;;12.43;8.32;;;10.10;99.90;;;;;;5082388;28;20044;-77
2020/12/15 03:29:21;;;;;;;13.27;8.88;;;10.10;99.90;;;;;;5085716;28;20101;-77
2020/12/15 03:31:46;;;;;;;10.35;7.43;;;10.10;99.90;;;;;;5077417;28;20509;-77
2020/12/15 03:34:12;;;;;;;13.15;8.35;;;10.10;99.90;;;;;;5088578;28;20137;-76
2020/12/15 03:36:38;;;;;;;10.63;8.10;;;10.10;99.90;;;;;;5085790;28;20489;-74
2020/12/15 03:39:06;;;;;;;12.48;6.65;;;10.20;99.90;;;;;;5105489;28;20118;-76
2020/12/15 03:41:32;;;;;;;11.27;7.65;;;10.20;99.90;;;;;;5091804;28;20024;-78
2020/12/15 03:43:57;;;;;;;11.68;7.68;;;10.20;99.90;;;;;;5083854;28;20500;-78
2020/12/15 03:46:23;;;;;;;15.07;8.57;;;10.10;99.90;;;;;;5059479;28;20024;-76
2020/12/15 03:48:50;;;;;;;14.35;8.77;;;10.10;99.90;;;;;;5079621;28;20389;-76
2020/12/15 03:51:15;;;;;;;12.80;8.85;;;10.10;99.90;;;;;;5065255;28;20024;-78
2020/12/15 03:53:41;;;;;;;13.82;8.63;;;10.10;99.90;;;;;;5070474;28;20066;-76
2020/12/15 03:56:07;;;;;;;12.48;8.30;;;10.00;99.90;;;;;;5091149;28;20017;-79
2020/12/15 03:58:32;;;;;;;12.27;7.72;;;10.10;99.90;;;;;;5094008;28;20024;-76
2020/12/15 04:00:58;;;;;;;13.13;8.55;;;10.00;99.90;;;;;;5095487;28;20146;-77
2020/12/15 04:03:24;;;;;;;10.13;8.07;;;10.00;99.90;;;;;;5092656;28;20036;-76
2020/12/15 04:05:51;;;;;;;11.98;7.72;;;10.10;99.90;;;;;;5085576;28;20029;-77
2020/12/15 04:08:18;;;;;;;12.90;8.20;;;10.00;99.90;;;;;;5092810;28;20643;-75
2020/12/15 04:10:44;;;;;;;13.55;8.25;;;10.00;99.90;;;;;;5074610;28;20012;-77
2020/12/15 04:13:09;;;;;;;10.43;8.05;;;9.90;99.90;;;;;;5062673;28;20039;-75
2020/12/15 04:15:35;;;;;;;15.38;7.78;;;9.90;99.90;;;;;;5054266;28;20244;-76
2020/12/15 04:18:00;;;;;;;14.50;7.90;;;9.90;99.90;;;;;;5094200;28;20034;-77
2020/12/15 04:20:27;;;;;;;11.10;8.18;;;9.90;99.90;;;;;;5078654;28;20060;-75
2020/12/15 04:22:52;;;;;;;13.52;8.18;;;9.80;99.90;;;;;;5092302;28;20021;-77
2020/12/15 04:25:18;;;;;;;11.10;7.20;;;9.80;99.90;;;;;;5078740;28;20028;-78
2020/12/15 04:27:44;;;;;;;14.38;7.75;;;9.80;99.90;;;;;;5092162;28;20040;-77
2020/12/15 04:30:09;;;;;;;12.77;8.05;;;9.80;99.90;;;;;;5090985;28;20028;-78
2020/12/15 04:32:35;;;;;;;12.82;8.80;;;9.80;99.90;;;;;;5087013;28;20073;-74
2020/12/15 04:35:00;;;;;;;12.15;8.60;;;9.70;99.90;;;;;;5070646;28;20123;-75
2020/12/15 04:37:26;;;;;;;12.75;8.35;;;9.70;99.90;;;;;;5074079;28;20032;-75
2020/12/15 04:39:51;;;;;;;12.32;7.80;;;9.70;99.90;;;;;;5052768;28;20070;-78
2020/12/15 04:42:17;;;;;;;12.30;7.18;;;9.80;99.90;;;;;;5080945;28;20024;-74
2020/12/15 04:44:43;;;;;;;10.50;7.65;;;9.80;99.90;;;;;;5090325;28;20043;-75
2020/12/15 04:47:23;;;;;;;11.10;8.13;;;9.80;99.90;;;;;;5090262;28;20024;-75
2020/12/15 04:50:12;;;;;;;13.90;8.43;;;9.80;99.90;;;;;;5056602;28;20051;-77
2020/12/15 04:52:45;;;;;;;19.10;8.75;;;9.80;99.90;;;;;;5083770;28;20074;-76
2020/12/15 04:55:13;;;;;;;13.85;8.13;;;9.70;99.90;;;;;;5070844;28;20574;-77
2020/12/15 04:57:39;;;;;;;14.10;7.65;;;9.70;99.90;;;;;;5086836;28;20016;-78
2020/12/15 05:00:07;;;;;;;14.63;8.35;;;9.70;99.90;;;;;;5085201;28;20031;-75
2020/12/15 05:02:33;;;;;;;22.75;7.97;;;9.70;99.90;;;;;;5073523;28;20329;-77
2020/12/15 05:04:59;;;;;;;11.23;7.97;;;9.70;99.90;;;;;;5075365;28;20366;-74
2020/12/15 05:07:25;;;;;;;13.95;8.30;;;9.70;99.90;;;;;;5085762;28;20054;-75
2020/12/15 05:09:51;;;;;;;18.27;8.32;;;9.70;99.90;;;;;;5089304;28;20032;-75
2020/12/15 05:12:18;;;;;;;14.25;8.38;;;9.70;99.90;;;;;;5092155;28;20031;-77
2020/12/15 05:14:53;;;;;;;17.33;9.15;;;9.70;99.90;;;;;;5093864;28;20085;-77
2020/12/15 05:17:32;;;;;;;15.55;9.13;;;9.70;99.90;;;;;;5084590;28;20392;-78
2020/12/15 05:19:58;;;;;;;16.40;8.82;;;9.70;99.90;;;;;;5080532;28;20065;-76
2020/12/15 05:22:24;;;;;;;13.80;7.43;;;9.70;99.90;;;;;;5073420;28;20376;-78
2020/12/15 05:24:50;;;;;;;18.75;7.75;;;9.70;99.90;;;;;;5074460;28;20031;-77
2020/12/15 05:27:30;;;;;;;11.07;7.97;;;9.70;99.90;;;;;;5092999;28;20406;-75
2020/12/15 05:30:10;;;;;;;14.77;8.32;;;9.80;99.90;;;;;;5069285;28;20109;-77
2020/12/15 05:32:46;;;;;;;11.35;8.05;;;9.80;99.90;;;;;;5079614;28;20016;-80
2020/12/15 05:35:14;;;;;;;13.38;8.00;;;9.70;99.90;;;;;;5086173;28;20551;-78
2020/12/15 05:37:46;;;;;;;12.98;7.95;;;9.70;99.90;;;;;;5090979;28;20050;-79
2020/12/15 05:40:11;;;;;;;13.38;7.20;;;9.70;99.90;;;;;;5073406;28;20075;-78
2020/12/15 05:42:38;;;;;;;11.93;8.52;;;9.70;99.90;;;;;;5081921;28;20236;-78
2020/12/15 05:45:07;;;;;;;16.70;8.32;;;9.70;99.90;;;;;;5069304;28;20071;-77
2020/12/15 05:47:33;;;;;;;14.88;8.30;;;9.80;99.90;;;;;;5068444;28;20059;-78
2020/12/15 05:50:00;;;;;;;14.40;8.82;;;9.80;99.90;;;;;;5097917;28;20034;-77
2020/12/15 05:52:27;;;;;;;17.58;8.52;;;9.80;99.90;;;;;;5057551;28;20020;-76
2020/12/15 05:55:07;;;;;;;14.48;8.85;;;9.80;99.90;;;;;;5100650;28;20027;-76
2020/12/15 05:57:33;;;;;;;13.30;7.38;;;9.80;99.90;;;;;;5084877;28;20409;-77
2020/12/15 06:00:10;;;;;;;15.63;8.52;;;9.90;99.90;;;;;;5086570;28;20050;-78
2020/12/15 06:02:35;;;;;;;9.80;7.28;;;9.80;99.90;;;;;;5105930;28;20028;-76
2020/12/15 06:05:01;;;;;;;11.88;7.63;;;9.80;99.90;;;;;;5095937;28;20042;-76
2020/12/15 06:07:28;;;;;;;11.93;7.13;;;9.80;99.90;;;;;;5088634;28;20044;-78
2020/12/15 06:09:57;;;;;;;9.95;7.25;;;9.80;99.90;;;;;;5091824;28;20051;-81
2020/12/15 06:12:23;;;;;;;14.95;8.00;;;9.90;99.90;;;;;;5090888;28;20024;-79
2020/12/15 06:14:49;;;;;;;13.70;8.40;;;9.90;99.90;;;;;;5070109;28;20496;-79
2020/12/15 06:17:20;;;;;;;12.48;7.03;;;9.70;99.90;;;;;;5080545;28;20044;-75
2020/12/15 06:19:57;;;;;;;13.60;8.18;;;9.70;99.90;;;;;;5077414;28;20426;-76
2020/12/15 06:22:25;;;;;;;14.35;8.05;;;9.80;99.90;;;;;;5093515;28;20027;-73
2020/12/15 06:24:58;;;;;;;17.65;8.07;;;9.80;99.90;;;;;;5085511;28;20035;-77
2020/12/15 06:27:37;;;;;;;13.27;8.52;;;9.80;99.90;;;;;;5086800;28;20035;-75
2020/12/15 06:30:06;;;;;;;11.60;7.88;;;9.80;99.90;;;;;;5084724;28;20040;-75
2020/12/15 06:32:32;;;;;;;15.10;8.77;;;9.80;99.90;;;;;;5084230;28;20028;-78
2020/12/15 06:34:58;;;;;;;13.05;8.35;;;9.80;99.90;;;;;;5082972;28;20079;-78
2020/12/15 06:37:29;;;;;;;13.00;8.35;;;9.80;99.90;;;;;;5073045;28;20049;-76
2020/12/15 06:40:05;;;;;;;15.52;8.65;;;9.80;99.90;;;;;;5038414;28;20021;-80
2020/12/15 06:42:31;;;;;;;17.42;7.88;;;9.90;99.90;;;;;;5064250;28;20048;-76
2020/12/15 06:45:04;;;;;;;16.42;8.00;;;9.90;99.90;;;;;;5038949;28;20041;-75
2020/12/15 06:47:31;;;;;;;14.55;7.55;;;9.90;99.90;;;;;;5031018;28;20025;-76
2020/12/15 06:50:09;;;;;;;12.95;8.32;;;9.90;99.90;;;;;;5046310;28;20421;-75
2020/12/15 06:52:35;;;;;;;12.13;7.45;;;9.90;99.90;;;;;;5027114;28;20040;-76
2020/12/15 06:55:01;;;;;;;14.57;7.30;;;9.90;99.90;;;;;;5050499;28;20037;-75
2020/12/15 06:57:34;;;;;;;11.18;7.05;;;9.90;99.90;;;;;;5017220;28;20021;-75
2020/12/15 07:00:04;;;;;;;12.32;8.35;;;9.90;99.90;;;;;;5052522;28;20124;-76
2020/12/15 07:02:32;;;;;;;15.30;9.30;;;9.90;99.90;;;;;;5038178;28;20022;-77
2020/12/15 07:05:17;;;;;;;13.15;7.85;;;9.90;99.90;;;;;;5047771;28;20021;-75
2020/12/15 07:07:51;;;;;;;12.25;8.57;;;9.90;99.90;;;;;;5050481;28;20426;-78
2020/12/15 07:10:19;;;;;;;16.02;8.80;;;9.90;99.90;;;;;;5020330;28;20045;-78
2020/12/15 07:12:47;;;;;;;12.32;8.10;;;9.80;99.90;;;;;;5053515;28;20084;-76
2020/12/15 07:15:13;;;;;;;11.77;7.97;;;9.80;99.90;;;;;;5054705;28;20029;-77
2020/12/15 07:17:44;;;;;;;14.63;9.13;;;9.80;99.90;;;;;;5056512;28;20063;-76
2020/12/15 07:20:10;;;;;;;13.32;8.27;;;9.90;99.90;;;;;;5049869;28;20116;-76
2020/12/15 07:22:36;;;;;;;13.93;8.85;;;9.90;99.90;;;;;;5055288;28;20025;-75
2020/12/15 07:25:03;;;;;;;10.95;8.48;;;9.90;99.90;;;;;;5041732;28;20109;-76
2020/12/15 07:27:31;;;;;;;14.00;9.35;;;10.00;99.90;;;;;;5044898;28;20029;-75
2020/12/15 07:29:57;;;;;;;12.68;7.72;;;10.00;99.90;;;;;;5048110;28;20036;-73
2020/12/15 07:32:23;;;;;;;10.68;7.32;;;10.00;99.90;;;;;;5048993;28;20020;-75
2020/12/15 07:34:50;;;;;;;15.40;8.48;;;9.90;99.90;;;;;;5025148;28;20091;-77
2020/12/15 07:37:19;;;;;;;16.23;8.90;;;10.00;99.90;;;;;;5045720;28;20033;-75
2020/12/15 07:39:46;;;;;;;17.35;9.15;;;9.90;99.90;;;;;;5048692;28;20686;-77
2020/12/15 07:42:13;;;;;;;14.75;8.88;;;9.90;99.90;;;;;;5027558;28;20050;-76
2020/12/15 07:44:38;;;;;;;16.70;9.48;;;9.80;99.90;;;;;;5054308;28;20021;-77
2020/12/15 07:47:06;;;;;;;17.55;9.43;;;9.90;99.90;;;;;;5053419;28;20028;-76
2020/12/15 07:49:32;;;;;;;15.18;9.38;;;9.90;99.90;;;;;;5074230;28;20075;-76
2020/12/15 07:51:58;;;;;;;14.07;8.50;;;9.90;99.90;;;;;;5040828;28;20033;-76
2020/12/15 07:54:23;;;;;;;16.42;8.93;;;9.90;99.90;;;;;;5026783;28;20028;-77
2020/12/15 07:56:52;;;;;;;12.77;8.35;;;10.00;99.90;;;;;;5040481;28;20021;-76
2020/12/15 07:59:18;;;;;;;12.32;8.80;;;10.00;99.90;;;;;;5067874;28;20021;-74
2020/12/15 08:01:44;;;;;;;16.38;9.43;;;10.10;99.90;;;;;;5056578;28;20360;-78
2020/12/15 08:04:18;;;;;;;14.30;9.07;;;10.00;99.90;;;;;;5072041;28;20084;-76
2020/12/15 08:06:46;;;;;;;14.43;9.60;;;10.00;99.90;;;;;;5056604;28;20017;-75
2020/12/15 08:09:15;;;;;;;15.15;9.65;;;9.90;99.90;;;;;;5079374;28;20063;-77
2020/12/15 08:11:45;;;;;;;15.50;9.60;;;9.90;99.90;;;;;;5068322;28;20044;-74
2020/12/15 08:14:17;;;;;;;18.02;10.18;;;10.00;99.90;;;;;;5069377;28;20028;-79
2020/12/15 08:16:46;;;;;;;13.60;9.67;;;10.00;99.90;;;;;;5066779;28;20021;-77
2020/12/15 08:19:14;;;;;;;17.02;9.27;;;10.10;99.90;;;;;;5041937;28;20033;-74
2020/12/15 08:21:48;;;;;;;15.05;9.93;;;10.10;99.90;;;;;;5088663;28;20013;-76
2020/12/15 08:24:21;;;;;;;16.45;9.68;;;10.10;99.90;;;;;;5069763;28;20031;-75
2020/12/15 08:26:48;;;;;;;18.73;10.70;;;10.10;99.90;;;;;;5053918;28;20020;-77
2020/12/15 08:29:20;;;;;;;16.90;10.10;;;10.10;99.90;;;;;;5056769;28;20057;-76
2020/12/15 08:31:46;;;;;;;13.98;9.43;;;10.10;99.90;;;;;;5054136;28;20020;-79
2020/12/15 08:34:21;;;;;;;22.35;9.32;;;10.00;99.90;;;;;;5064266;28;20032;-76
2020/12/15 08:36:53;;;;;;;20.92;11.23;;;10.00;99.90;;;;;;5065113;28;20033;-76
2020/12/15 08:39:21;;;;;;;16.52;10.18;;;10.00;99.90;;;;;;5071950;28;20043;-76
2020/12/15 08:41:53;;;;;;;16.92;10.68;;;10.10;99.90;;;;;;5068202;28;20023;-76
2020/12/15 08:44:20;;;;;;;16.27;10.02;;;10.10;99.90;;;;;;5057485;28;20051;-79
2020/12/15 08:46:46;;;;;;;22.65;10.85;;;10.10;99.90;;;;;;5074356;28;20242;-76
2020/12/15 08:49:16;;;;;;;19.05;10.40;;;10.10;99.90;;;;;;5080203;28;20092;-75
2020/12/15 08:51:47;;;;;;;21.90;9.68;;;10.20;99.90;;;;;;5077198;28;20056;-77
2020/12/15 08:54:13;;;;;;;15.25;10.07;;;10.20;99.90;;;;;;5077015;28;20028;-75
2020/12/15 08:56:40;;;;;;;15.40;9.85;;;10.10;99.90;;;;;;5084519;28;20024;-76
2020/12/15 08:59:12;;;;;;;16.45;10.63;;;10.10;99.90;;;;;;5059208;28;20032;-76
2020/12/15 09:01:38;;;;;;;20.65;10.98;;;10.10;99.90;;;;;;5061925;28;20030;-75
2020/12/15 09:04:05;;;;;;;17.33;10.82;;;10.20;99.90;;;;;;5075481;28;20020;-78
2020/12/15 09:06:35;;;;;;;22.08;11.18;;;10.20;99.90;;;;;;5085031;28;20028;-76
2020/12/15 09:09:02;;;;;;;18.48;10.77;;;10.20;99.90;;;;;;5059518;28;20036;-76
2020/12/15 09:11:28;;;;;;;14.80;9.82;;;10.20;99.90;;;;;;5092315;28;20458;-75
2020/12/15 09:14:04;;;;;;;19.25;10.90;;;10.30;99.90;;;;;;5100631;28;20065;-74
2020/12/15 09:16:37;;;;;;;16.92;10.40;;;10.30;99.90;;;;;;5101954;28;20031;-77
2020/12/15 09:19:26;;;;;;;20.23;10.45;;;10.30;99.90;;;;;;5094404;28;20521;-76
2020/12/15 09:21:59;;;;;;;15.23;11.15;;;10.30;99.90;;;;;;5076385;28;20036;-75
2020/12/15 09:24:50;;;;;;;15.85;10.65;;;10.30;99.90;;;;;;5089570;28;20040;-77
2020/12/15 09:27:23;;;;;;;18.48;11.82;;;10.30;99.90;;;;;;5077480;28;20580;-76
2020/12/15 09:29:50;;;;;;;18.33;10.57;;;10.40;99.90;;;;;;5082533;28;20501;-76
2020/12/15 09:32:17;;;;;;;15.98;11.02;;;10.50;99.90;;;;;;5094781;28;20066;-73
2020/12/15 09:34:45;;;;;;;16.15;9.75;;;10.50;99.90;;;;;;5082605;28;20116;-76
2020/12/15 09:37:10;;;;;;;21.10;11.07;;;10.40;99.90;;;;;;5099620;28;20339;-75
2020/12/15 09:39:36;;;;;;;19.92;12.13;;;10.40;99.90;;;;;;5105811;28;20024;-77
2020/12/15 09:42:03;;;;;;;20.23;11.45;;;10.40;99.90;;;;;;5090337;28;20037;-76
2020/12/15 09:44:29;;;;;;;16.35;11.43;;;10.50;99.90;;;;;;5088139;28;20020;-76
2020/12/15 09:46:55;;;;;;;21.13;11.82;;;10.40;99.90;;;;;;5079517;28;20027;-78
2020/12/15 09:49:21;;;;;;;16.30;11.02;;;10.40;99.90;;;;;;5089636;28;20032;-76
2020/12/15 09:51:46;;;;;;;20.05;12.05;;;10.40;99.90;;;;;;5092818;28;20046;-77
2020/12/15 09:54:12;;;;;;;20.10;12.02;;;10.40;99.90;;;;;;5095143;28;20024;-77
2020/12/15 09:56:42;;;;;;;17.25;11.30;;;10.40;99.90;;;;;;5093208;28;20024;-76
2020/12/15 09:59:11;;;;;;;16.92;11.45;;;10.50;99.90;;;;;;5091612;28;20579;-76
2020/12/15 10:01:43;;;;;;;17.17;11.48;;;10.40;99.90;;;;;;5100229;28;20024;-76
2020/12/15 10:04:10;;;;;;;19.92;11.00;;;10.50;99.90;;;;;;5089017;28;20107;-76
2020/12/15 10:06:37;;;;;;;14.68;10.68;;;10.50;99.90;;;;;;5059318;28;20070;-78
2020/12/15 10:09:06;;;;;;;23.73;12.68;;;10.50;99.90;;;;;;5085259;28;20036;-75
2020/12/15 10:11:32;;;;;;;19.85;11.73;;;10.50;99.90;;;;;;5094353;28;20099;-78
2020/12/15 10:13:57;;;;;;;15.77;10.05;;;10.50;99.90;;;;;;5095176;28;20260;-80
2020/12/15 10:16:23;;;;;;;19.42;12.48;;;10.50;99.90;;;;;;5093056;28;20099;-76
2020/12/15 10:18:48;;;;;;;21.63;12.60;;;10.50;99.90;;;;;;5079311;28;20470;-78
2020/12/15 10:21:18;;;;;;;20.48;12.48;;;10.60;99.90;;;;;;5092678;28;20016;-78
2020/12/15 10:23:47;;;;;;;22.50;12.25;;;10.60;99.90;;;;;;5094324;28;20020;-78
2020/12/15 10:26:19;;;;;;;19.92;12.85;;;10.70;99.90;;;;;;5073821;28;20528;-74
2020/12/15 10:28:45;;;;;;;18.23;12.35;;;10.70;99.90;;;;;;5102922;28;20035;-76
2020/12/15 10:31:11;;;;;;;18.58;13.88;;;10.70;99.90;;;;;;5096262;28;20527;-75
2020/12/15 10:33:36;;;;;;;19.33;12.88;;;10.70;99.90;;;;;;5095634;28;20502;-75
2020/12/15 10:36:03;;;;;;;20.60;13.20;;;10.80;99.90;;;;;;5072792;28;20029;-79
2020/12/15 10:38:29;;;;;;;22.85;14.93;;;10.70;99.90;;;;;;5096720;28;20032;-76
2020/12/15 10:40:57;;;;;;;21.40;13.38;;;10.70;99.90;;;;;;5091376;28;20495;-76
2020/12/15 10:43:25;;;;;;;18.52;12.52;;;10.70;99.90;;;;;;5091305;28;20019;-76
2020/12/15 10:45:51;;;;;;;17.52;12.27;;;10.70;99.90;;;;;;5077835;28;20016;-76
2020/12/15 10:48:16;;;;;;;20.58;13.30;;;10.80;99.90;;;;;;5090002;28;20020;-75
2020/12/15 10:50:42;;;;;;;18.67;10.98;;;10.90;99.90;;;;;;5091890;28;20023;-74
2020/12/15 10:53:11;;;;;;;20.40;11.88;;;10.90;99.90;;;;;;5097834;28;20031;-74
2020/12/15 10:55:37;;;;;;;25.45;14.48;;;10.90;99.90;;;;;;5081239;28;20027;-77
2020/12/15 10:58:03;;;;;;;23.33;15.10;;;10.90;99.90;;;;;;5090248;28;20515;-75
2020/12/15 11:00:29;;;;;;;22.88;15.05;;;10.80;99.90;;;;;;5099636;28;20457;-76
2020/12/15 11:02:55;;;;;;;22.50;14.95;;;10.80;99.90;;;;;;5084778;28;20069;-76
2020/12/15 11:05:21;;;;;;;22.42;13.95;;;10.80;99.90;;;;;;5075924;28;20024;-77
2020/12/15 11:07:46;;;;;;;25.50;14.90;;;10.80;99.90;;;;;;5093524;28;20426;-75
2020/12/15 11:10:12;;;;;;;25.27;15.70;;;10.80;99.90;;;;;;5092313;28;20497;-77
2020/12/15 11:12:38;;;;;;;25.05;14.93;;;10.90;99.90;;;;;;5092003;28;20055;-78
2020/12/15 11:15:04;;;;;;;24.60;14.10;;;10.90;99.90;;;;;;5110768;28;20077;-78
2020/12/15 11:17:30;;;;;;;29.15;16.23;;;10.90;99.90;;;;;;5096423;28;20079;-77
2020/12/15 11:19:55;;;;;;;25.77;17.02;;;10.90;99.90;;;;;;5093101;28;20409;-75
2020/12/15 11:22:21;;;;;;;25.02;17.60;;;10.80;99.90;;;;;;5093336;28;20481;-75
2020/12/15 11:24:47;;;;;;;24.67;17.02;;;10.80;99.90;;;;;;5093772;28;20420;-77
2020/12/15 11:27:13;;;;;;;22.75;15.60;;;10.80;99.90;;;;;;5108576;28;20476;-75
2020/12/15 11:29:38;;;;;;;26.60;16.50;;;10.80;99.90;;;;;;5104122;28;20078;-76
2020/12/15 11:32:04;;;;;;;29.98;15.02;;;10.70;99.90;;;;;;5090704;28;20046;-77
2020/12/15 11:34:29;;;;;;;26.38;15.68;;;10.80;99.90;;;;;;5072155;28;20021;-77
2020/12/15 11:36:55;;;;;;;28.92;15.63;;;10.90;99.90;;;;;;5080858;28;20509;-77
2020/12/15 11:39:22;;;;;;;22.98;16.27;;;11.00;99.90;;;;;;5081139;28;20039;-76
2020/12/15 11:41:49;;;;;;;28.33;17.25;;;10.90;99.90;;;;;;5083722;28;20218;-77
2020/12/15 11:44:15;;;;;;;34.72;17.40;;;10.90;99.90;;;;;;5079571;28;20079;-77
2020/12/15 11:46:41;;;;;;;29.35;17.15;;;10.80;99.90;;;;;;5087762;28;20321;-74
2020/12/15 11:49:07;;;;;;;30.50;17.13;;;10.80;99.90;;;;;;5074783;28;20043;-77
2020/12/15 11:51:32;;;;;;;29.23;17.05;;;10.80;99.90;;;;;;5093233;28;20016;-77
2020/12/15 11:53:58;;;;;;;29.23;17.17;;;10.90;99.90;;;;;;5095386;28;20020;-79
2020/12/15 11:56:24;;;;;;;24.55;16.90;;;10.90;99.90;;;;;;5092436;28;20016;-77
2020/12/15 11:58:49;;;;;;;27.23;16.08;;;10.90;99.90;;;;;;5095148;28;20039;-76
2020/12/15 12:01:15;;;;;;;29.08;17.48;;;10.90;99.90;;;;;;5076275;28;20028;-77
2020/12/15 12:03:40;;;;;;;26.40;17.70;;;10.90;99.90;;;;;;5075304;28;20029;-77
2020/12/15 12:06:06;;;;;;;31.60;17.63;;;10.80;99.90;;;;;;5086222;28;20021;-75
2020/12/15 12:08:32;;;;;;;26.75;18.05;;;10.80;99.90;;;;;;5054776;28;20036;-74
2020/12/15 12:10:57;;;;;;;30.13;19.23;;;10.90;99.90;;;;;;5091257;28;20043;-76
2020/12/15 12:13:23;;;;;;;36.70;19.00;;;10.80;99.90;;;;;;5073446;28;20016;-76
2020/12/15 12:15:49;;;;;;;32.80;18.95;;;10.80;99.90;;;;;;5090854;28;20051;-76
2020/12/15 12:18:14;;;;;;;28.27;17.75;;;10.80;99.90;;;;;;5091761;28;20016;-76
2020/12/15 12:21:04;;;;;;;29.45;18.92;;;10.90;99.90;;;;;;5133507;27;20913;-60
2020/12/15 12:23:30;;;;;;;32.25;18.05;;;10.80;99.90;;;;;;5138942;27;20024;-61
2020/12/15 12:25:55;;;;;;;27.42;14.52;;;10.90;99.90;;;;;;5129104;27;20032;-59
2020/12/15 12:28:21;;;;;;;25.58;17.23;;;10.90;99.90;;;;;;5127651;27;20439;-61
2020/12/15 12:30:46;;;;;;;26.98;18.45;;;10.80;99.90;;;;;;5119287;27;20019;-61
2020/12/15 12:33:12;;;;;;;28.38;16.02;;;10.80;99.90;;;;;;5126428;27;20015;-59
2020/12/15 12:35:37;;;;;;;25.95;17.00;;;10.80;99.90;;;;;;5128416;27;20079;-62
2020/12/15 12:38:03;;;;;;;35.65;17.98;;;10.80;99.90;;;;;;5126724;27;20015;-62
2020/12/15 12:40:28;;;;;;;31.55;18.45;;;10.80;99.90;;;;;;5120854;27;20027;-61